Time;durP1;ratioP1;P1;durP2;ratioP2;P2;SDS_P1;SDS_P2;PMS_P1;PMS_P2;Temp;Humidity;BMP_temperature;BMP_pressure;BME280_temperature;BME280_humidity;BME280_pressure;Samples;Min_cycle;Max_cycle;Signal;HPM_P1;HPM_P2
2022/04/28 00:02:11;;;;;;;6.65;0.93;;;;;;;3.13;100.00;102248.38;5102755;28;20108;-47
2022/04/28 00:04:37;;;;;;;7.07;1.58;;;;;;;3.23;100.00;102241.59;5091092;28;20130;-47
2022/04/28 00:07:02;;;;;;;2.67;1.13;;;;;;;3.27;100.00;102246.50;5086862;28;20023;-48
2022/04/28 00:09:28;;;;;;;5.40;1.27;;;;;;;3.23;100.00;102247.66;5106297;28;20114;-47
2022/04/28 00:11:53;;;;;;;8.05;1.52;;;;;;;3.22;100.00;102256.47;5074684;28;20032;-48
2022/04/28 00:14:20;;;;;;;3.72;1.50;;;;;;;3.24;100.00;102253.75;5091545;28;20035;-45
2022/04/28 00:16:45;;;;;;;4.03;0.88;;;;;;;3.23;100.00;102257.31;5103173;28;20027;-48
2022/04/28 00:19:11;;;;;;;1.92;1.70;;;;;;;3.22;100.00;102258.25;5096375;28;20093;-48
2022/04/28 00:21:36;;;;;;;2.67;1.17;;;;;;;3.26;100.00;102259.75;5106084;28;20067;-49
2022/04/28 00:24:02;;;;;;;2.53;0.90;;;;;;;3.32;100.00;102258.50;5098503;28;20093;-47
2022/04/28 00:26:27;;;;;;;4.97;2.05;;;;;;;3.34;100.00;102254.00;5114049;28;20015;-47
2022/04/28 00:28:52;;;;;;;2.85;0.95;;;;;;;3.41;100.00;102261.38;5099846;28;20444;-45
2022/04/28 00:31:18;;;;;;;0.82;0.70;;;;;;;3.50;100.00;102265.16;5105489;28;20114;-46
2022/04/28 00:33:43;;;;;;;8.35;2.15;;;;;;;3.57;100.00;102261.19;5104325;28;20527;-47
2022/04/28 00:36:09;;;;;;;1.30;1.10;;;;;;;3.64;100.00;102262.47;5092173;28;20055;-51
2022/04/28 00:38:34;;;;;;;6.68;2.03;;;;;;;3.72;100.00;102260.16;5109666;28;20074;-46
2022/04/28 00:41:00;;;;;;;6.40;1.75;;;;;;;3.81;100.00;102258.69;5095163;28;20102;-49
2022/04/28 00:43:29;;;;;;;1.80;1.10;;;;;;;3.83;100.00;102255.97;5093919;28;20023;-49
2022/04/28 00:45:55;;;;;;;3.72;1.60;;;;;;;3.80;100.00;102257.03;5098303;28;20028;-49
2022/04/28 00:51:06;;;;;;;6.05;2.47;;;;;;;3.75;100.00;102250.41;5099115;28;20494;-47
2022/04/28 00:53:35;;;;;;;3.17;0.70;;;;;;;3.75;100.00;102248.63;5099993;28;20455;-47
2022/04/28 00:56:02;;;;;;;3.88;1.00;;;;;;;3.76;100.00;102249.47;5096425;28;20083;-46
2022/04/28 00:58:28;;;;;;;3.03;0.90;;;;;;;3.77;100.00;102254.63;5113223;28;20114;-47
2022/04/28 01:00:55;;;;;;;6.95;1.40;;;;;;;3.77;100.00;102246.75;5099985;28;20146;-47
2022/04/28 01:03:21;;;;;;;8.50;2.08;;;;;;;3.77;100.00;102245.88;5103890;28;20051;-49
2022/04/28 01:05:47;;;;;;;2.20;1.23;;;;;;;3.75;100.00;102245.16;5091550;28;20092;-49
2022/04/28 01:08:13;;;;;;;4.38;1.17;;;;;;;3.75;100.00;102247.78;5102418;28;20118;-47
2022/04/28 01:10:38;;;;;;;8.20;2.55;;;;;;;3.75;100.00;102245.16;5108231;28;20067;-46
2022/04/28 01:13:04;;;;;;;4.43;1.08;;;;;;;3.80;100.00;102250.94;5103508;28;20063;-47
2022/04/28 01:15:30;;;;;;;3.40;1.77;;;;;;;3.82;100.00;102249.03;5094505;28;20035;-50
2022/04/28 01:17:55;;;;;;;1.88;0.90;;;;;;;3.86;100.00;102247.91;5095864;28;20020;-46
2022/04/28 01:20:21;;;;;;;1.65;0.90;;;;;;;3.94;100.00;102250.84;5100665;28;20103;-46
2022/04/28 01:22:46;;;;;;;2.38;1.15;;;;;;;4.01;100.00;102251.25;5092797;28;20055;-45
2022/04/28 01:25:12;;;;;;;3.63;1.25;;;;;;;4.04;100.00;102249.25;5095772;28;20030;-45
2022/04/28 01:27:38;;;;;;;3.65;1.08;;;;;;;4.05;100.00;102247.47;5101826;28;20035;-47
2022/04/28 01:30:11;;;;;;;3.45;1.60;;;;;;;4.11;100.00;102247.06;5107842;28;20630;-46
2022/04/28 01:32:37;;;;;;;2.65;0.98;;;;;;;4.18;100.00;102250.09;5103175;28;20031;-48
2022/04/28 01:35:02;;;;;;;4.75;0.68;;;;;;;4.23;100.00;102253.25;5102186;28;20027;-48
2022/04/28 01:37:28;;;;;;;7.07;2.20;;;;;;;4.25;100.00;102249.56;5100787;28;20499;-46
2022/04/28 01:39:55;;;;;;;2.85;1.25;;;;;;;4.27;100.00;102245.06;5113972;28;20503;-47
2022/04/28 01:42:22;;;;;;;5.50;1.27;;;;;;;4.29;100.00;102251.03;5109416;28;20395;-50
2022/04/28 01:44:48;;;;;;;3.22;2.00;;;;;;;4.33;100.00;102244.59;5099414;28;20122;-49
2022/04/28 01:47:13;;;;;;;2.13;0.70;;;;;;;4.36;100.00;102241.78;5103125;28;20126;-49
2022/04/28 01:49:38;;;;;;;2.33;1.70;;;;;;;4.36;100.00;102254.06;5110290;28;20097;-47
2022/04/28 01:54:59;;;;;;;2.83;0.82;;;;;;;4.45;100.00;102247.34;5103435;28;20582;-48
2022/04/28 01:57:29;;;;;;;5.07;1.35;;;;;;;4.51;100.00;102245.09;5107114;28;20110;-46
2022/04/28 01:59:58;;;;;;;2.72;1.08;;;;;;;4.60;100.00;102246.25;5073786;28;20032;-47
2022/04/28 02:02:23;;;;;;;9.15;1.63;;;;;;;4.68;100.00;102245.72;5105706;28;20472;-46
2022/04/28 02:04:49;;;;;;;6.43;1.30;;;;;;;4.72;100.00;102247.16;5111695;28;20039;-45
2022/04/28 02:07:15;;;;;;;2.72;1.50;;;;;;;4.82;100.00;102253.44;5108767;28;20479;-46
2022/04/28 02:09:41;;;;;;;4.00;1.35;;;;;;;4.90;100.00;102247.63;5102501;28;20030;-48
2022/04/28 02:12:08;;;;;;;6.32;1.10;;;;;;;4.88;100.00;102246.91;5107306;28;20497;-49
2022/04/28 02:14:33;;;;;;;8.13;1.55;;;;;;;4.88;100.00;102246.91;5098504;28;20492;-46
2022/04/28 02:16:59;;;;;;;5.90;1.92;;;;;;;4.89;100.00;102246.81;5108895;28;20034;-48
2022/04/28 02:19:24;;;;;;;3.05;0.98;;;;;;;4.92;100.00;102249.19;5102834;28;20032;-47
2022/04/28 02:21:50;;;;;;;3.63;1.15;;;;;;;4.90;100.00;102242.38;5105544;28;20024;-46
2022/04/28 02:24:15;;;;;;;5.18;0.82;;;;;;;4.88;100.00;102245.13;5112945;28;20409;-49
2022/04/28 02:26:41;;;;;;;5.65;1.30;;;;;;;4.87;100.00;102243.44;5085707;28;20063;-49
2022/04/28 02:29:06;;;;;;;3.25;1.13;;;;;;;4.92;100.00;102243.13;5107242;28;20373;-46
2022/04/28 02:31:31;;;;;;;3.85;0.35;;;;;;;4.92;100.00;102245.75;5105438;28;20496;-49
2022/04/28 02:33:57;;;;;;;3.33;1.17;;;;;;;4.86;100.00;102239.13;5109213;28;20020;-46
2022/04/28 02:36:24;;;;;;;3.58;1.23;;;;;;;4.82;100.00;102248.19;5101001;28;20535;-45
2022/04/28 02:38:50;;;;;;;5.45;0.93;;;;;;;4.78;100.00;102247.56;5095102;28;20034;-47
2022/04/28 02:41:20;;;;;;;1.75;0.60;;;;;;;4.74;100.00;102246.09;5107893;28;20392;-50
2022/04/28 02:43:45;;;;;;;5.68;1.67;;;;;;;4.73;100.00;102243.59;5100452;28;20050;-45
2022/04/28 02:46:11;;;;;;;3.50;1.00;;;;;;;4.66;100.00;102244.97;5099873;28;20024;-47
2022/04/28 02:48:37;;;;;;;7.00;1.70;;;;;;;4.56;100.00;102235.13;5107056;28;20035;-47
2022/04/28 02:51:03;;;;;;;5.93;2.15;;;;;;;4.54;100.00;102237.03;5106676;28;20098;-45
2022/04/28 02:53:28;;;;;;;0.80;0.43;;;;;;;4.54;100.00;102234.41;5104117;28;20501;-47
2022/04/28 02:55:53;;;;;;;3.40;1.08;;;;;;;4.52;100.00;102235.47;5097223;28;20064;-46
2022/04/28 02:58:18;;;;;;;5.15;1.75;;;;;;;4.56;100.00;102236.91;5098895;28;20031;-47
2022/04/28 03:00:44;;;;;;;2.00;0.73;;;;;;;4.61;100.00;102236.59;5105264;28;20039;-45
2022/04/28 03:03:10;;;;;;;4.03;0.55;;;;;;;4.67;100.00;102236.13;5106743;28;20053;-49
2022/04/28 03:10:46;;;;;;;4.07;1.55;;;;;;;4.69;100.00;102236.88;5097874;28;20062;-46
2022/04/28 03:11:05;;;;;;;3.47;1.45;;;;;;;4.66;100.00;102234.47;5099850;28;20503;-48
2022/04/28 03:13:34;;;;;;;2.90;0.57;;;;;;;4.69;100.00;102237.72;5091040;28;20480;-51
2022/04/28 03:16:00;;;;;;;3.80;0.70;;;;;;;4.69;100.00;102236.88;5096597;28;20043;-45
2022/04/28 03:18:26;;;;;;;2.33;1.08;;;;;;;4.64;100.00;102242.44;5102930;28;20028;-46
2022/04/28 03:20:51;;;;;;;6.07;0.80;;;;;;;4.60;100.00;102241.00;5098997;28;20070;-46
2022/04/28 03:23:16;;;;;;;1.08;0.50;;;;;;;4.57;100.00;102228.09;5092426;28;20024;-47
2022/04/28 03:25:42;;;;;;;1.85;1.10;;;;;;;4.56;100.00;102236.91;5093511;28;20039;-47
2022/04/28 03:28:08;;;;;;;0.57;0.30;;;;;;;4.55;100.00;102235.25;5108491;28;20064;-50
2022/04/28 03:30:34;;;;;;;4.60;0.70;;;;;;;4.56;100.00;102232.50;5104965;28;20465;-46
2022/04/28 03:33:00;;;;;;;2.67;1.27;;;;;;;4.54;100.00;102231.78;5107941;28;20068;-49
2022/04/28 03:35:25;;;;;;;11.25;0.73;;;;;;;4.52;100.00;102232.84;5095570;28;20077;-45
2022/04/28 03:37:50;;;;;;;6.55;0.73;;;;;;;4.52;100.00;102232.84;5099776;28;20099;-45
2022/04/28 03:40:16;;;;;;;4.10;0.50;;;;;;;4.50;100.00;102229.47;5107718;28;20054;-47
2022/04/28 03:42:43;;;;;;;8.30;0.63;;;;;;;4.52;100.00;102232.84;5108333;28;20043;-50
2022/04/28 03:45:09;;;;;;;3.08;0.70;;;;;;;4.54;100.00;102237.03;5099721;28;20032;-45
2022/04/28 03:47:38;;;;;;;2.15;1.38;;;;;;;4.54;100.00;102233.53;5094368;28;20024;-49
2022/04/28 03:50:04;;;;;;;2.35;0.85;;;;;;;4.53;100.00;102239.75;5100616;28;20055;-49
2022/04/28 03:52:30;;;;;;;1.50;0.30;;;;;;;4.50;100.00;102240.81;5097230;28;20468;-47
2022/04/28 03:54:55;;;;;;;2.65;0.88;;;;;;;4.54;100.00;102239.66;5103793;28;20072;-48
2022/04/28 03:57:21;;;;;;;4.05;0.70;;;;;;;4.59;100.00;102236.69;5097779;28;20028;-49
2022/04/28 03:59:46;;;;;;;5.82;1.95;;;;;;;4.59;100.00;102240.19;5093224;28;20039;-48
2022/04/28 04:02:12;;;;;;;3.17;0.52;;;;;;;4.54;100.00;102237.03;5076272;28;20023;-51
2022/04/28 04:04:37;;;;;;;1.13;0.50;;;;;;;4.46;100.00;102236.72;5105663;28;20476;-48
2022/04/28 04:07:03;;;;;;;2.05;0.40;;;;;;;4.42;100.00;102240.53;5076195;28;20028;-48
2022/04/28 04:09:28;;;;;;;6.95;1.08;;;;;;;4.45;100.00;102249.97;5092189;28;20096;-48
2022/04/28 04:11:54;;;;;;;2.47;0.68;;;;;;;4.40;100.00;102260.78;5098566;28;20027;-48
2022/04/28 04:14:19;;;;;;;14.75;0.90;;;;;;;4.41;100.00;102259.84;5097706;28;20074;-46
2022/04/28 04:16:45;;;;;;;3.17;1.38;;;;;;;4.43;100.00;102265.00;5091612;28;20060;-49
2022/04/28 04:19:10;;;;;;;7.32;1.30;;;;;;;4.42;100.00;102265.94;5099945;28;20036;-51
2022/04/28 04:21:35;;;;;;;1.00;0.30;;;;;;;4.33;100.00;102262.16;5102358;28;20104;-46
2022/04/28 04:24:01;;;;;;;3.50;0.47;;;;;;;4.26;100.00;102266.16;5081997;28;20027;-51
2022/04/28 04:26:26;;;;;;;2.53;1.17;;;;;;;4.23;100.00;102276.88;5092107;28;20459;-46
2022/04/28 04:28:51;;;;;;;1.23;0.85;;;;;;;4.16;100.00;102273.84;5103637;28;20036;-50
2022/04/28 04:34:01;;;;;;;2.30;0.63;;;;;;;3.97;100.00;102281.28;5090082;28;20112;-45
2022/04/28 04:36:26;;;;;;;1.33;0.70;;;;;;;3.92;100.00;102284.22;5093393;28;20036;-49
2022/04/28 04:38:52;;;;;;;4.65;1.73;;;;;;;3.83;100.00;102300.59;5103834;28;20023;-46
2022/04/28 04:41:17;;;;;;;3.92;1.05;;;;;;;3.76;100.00;102296.69;5105652;28;20062;-50
2022/04/28 04:43:42;;;;;;;4.40;0.85;;;;;;;3.70;100.00;102297.94;5088102;28;20032;-47
2022/04/28 04:46:08;;;;;;;1.08;0.35;;;;;;;3.59;100.00;102292.53;5095096;28;20469;-47
2022/04/28 04:48:33;;;;;;;7.45;1.30;;;;;;;3.45;100.00;102293.47;5087823;28;20504;-51
2022/04/28 04:50:59;;;;;;;8.60;2.78;;;;;;;3.33;100.00;102284.63;5099636;28;20059;-48
2022/04/28 04:53:24;;;;;;;4.20;1.50;;;;;;;3.20;100.00;102295.06;5102042;28;20031;-45
2022/04/28 04:55:49;;;;;;;2.00;0.93;;;;;;;3.13;100.00;102295.56;5093867;28;20064;-48
2022/04/28 04:58:15;;;;;;;5.20;1.15;;;;;;;3.12;100.00;102296.47;5094126;28;20027;-48
2022/04/28 05:00:40;;;;;;;1.17;0.73;;;;;;;3.08;100.00;102301.09;5076428;28;20032;-51
2022/04/28 05:03:06;;;;;;;2.20;1.33;;;;;;;2.99;100.00;102289.38;5094318;28;20028;-46
2022/04/28 05:05:31;;;;;;;4.65;1.10;;;;;;;2.88;100.00;102294.47;5094990;28;20039;-45
2022/04/28 05:07:57;;;;;;;3.58;1.38;;;;;;;2.81;100.00;102290.56;5096791;28;20114;-47
2022/04/28 05:10:22;;;;;;;4.20;1.55;;;;;;;2.80;100.00;102292.34;5096614;28;20034;-47
2022/04/28 05:12:48;;;;;;;2.55;0.60;;;;;;;2.82;100.00;102305.34;5099303;28;20510;-49
2022/04/28 05:15:14;;;;;;;4.28;0.93;;;;;;;2.79;100.00;102319.47;5096314;28;20536;-49
2022/04/28 05:17:39;;;;;;;4.15;3.00;;;;;;;2.83;100.00;102325.38;5093681;28;20027;-45
2022/04/28 05:20:06;;;;;;;6.47;1.45;;;;;;;2.81;100.00;102327.22;5085520;28;20387;-46
2022/04/28 05:22:32;;;;;;;2.60;1.30;;;;;;;2.82;100.00;102336.78;5098448;28;20035;-46
2022/04/28 05:24:57;;;;;;;1.63;0.98;;;;;;;2.82;100.00;102345.47;5100237;28;20040;-47
2022/04/28 05:27:22;;;;;;;7.78;1.45;;;;;;;2.90;100.00;102350.25;5087280;28;20028;-47
2022/04/28 05:29:48;;;;;;;5.32;1.92;;;;;;;2.98;100.00;102348.00;5090741;28;20027;-45
2022/04/28 05:32:13;;;;;;;3.22;1.42;;;;;;;3.03;100.00;102350.31;5091516;28;20046;-52
2022/04/28 05:34:38;;;;;;;5.45;1.63;;;;;;;3.08;100.00;102353.50;5096924;28;20059;-46
2022/04/28 05:37:05;;;;;;;5.22;2.13;;;;;;;3.14;100.00;102352.28;5093251;28;20039;-49
2022/04/28 05:39:30;;;;;;;4.25;1.10;;;;;;;3.22;100.00;102360.47;5094455;28;20054;-48
2022/04/28 05:41:56;;;;;;;4.32;0.98;;;;;;;3.30;100.00;102355.59;5088843;28;20402;-50
2022/04/28 05:47:07;;;;;;;1.88;1.40;;;;;;;3.49;100.00;102361.34;5092790;28;20046;-47
2022/04/28 05:49:32;;;;;;;2.78;1.08;;;;;;;3.65;100.00;102353.31;5090274;28;20035;-48
2022/04/28 05:51:58;;;;;;;2.22;1.50;;;;;;;3.81;100.00;102358.41;5088388;28;20055;-45
2022/04/28 05:54:24;;;;;;;3.42;0.77;;;;;;;3.96;100.00;102363.59;5090770;28;20019;-47
2022/04/28 05:56:50;;;;;;;3.45;1.75;;;;;;;4.13;100.00;102363.28;5094152;28;20413;-46
2022/04/28 05:59:16;;;;;;;4.72;1.08;;;;;;;4.28;100.00;102364.06;5099410;28;20045;-49
2022/04/28 06:01:42;;;;;;;2.88;1.50;;;;;;;4.44;100.00;102361.22;5097748;28;20051;-46
2022/04/28 06:04:08;;;;;;;5.18;1.83;;;;;;;4.66;100.00;102355.34;5096475;28;20071;-48
2022/04/28 06:06:34;;;;;;;8.25;1.65;;;;;;;4.84;100.00;102359.31;5106763;28;20091;-47
2022/04/28 06:08:59;;;;;;;4.15;1.50;;;;;;;4.98;100.00;102356.56;5099575;28;20035;-47
2022/04/28 06:11:24;;;;;;;7.65;2.28;;;;;;;5.11;100.00;102356.53;5100426;28;20034;-49
2022/04/28 06:13:50;;;;;;;32.50;3.15;;;;;;;5.33;100.00;102358.44;5091295;28;20020;-48
2022/04/28 06:16:15;;;;;;;6.63;2.17;;;;;;;5.58;100.00;102365.41;5099494;28;20052;-46
2022/04/28 06:18:40;;;;;;;4.53;1.10;;;;;;;5.77;100.00;102358.78;5107220;28;20386;-46
2022/04/28 06:21:06;;;;;;;7.78;1.92;;;;;;;5.94;100.00;102360.19;5093689;28;20467;-45
2022/04/28 06:23:32;;;;;;;11.27;1.75;;;;;;;6.12;100.00;102356.19;5095621;28;20020;-51
2022/04/28 06:25:57;;;;;;;3.53;1.35;;;;;;;6.29;100.00;102350.44;5096986;28;20167;-50
2022/04/28 06:28:22;;;;;;;5.45;0.73;;;;;;;6.44;100.00;102348.44;5097392;28;20032;-45
2022/04/28 06:30:48;;;;;;;6.72;2.08;;;;;;;6.59;100.00;102350.88;5094421;28;20455;-46
2022/04/28 06:33:13;;;;;;;1.15;0.88;;;;;;;6.71;100.00;102350.75;5100047;28;20088;-50
2022/04/28 06:35:38;;;;;;;2.97;1.25;;;;;;;6.83;100.00;102340.19;5098948;28;20031;-51
2022/04/28 06:38:04;;;;;;;9.95;2.05;;;;;;;6.92;100.00;102348.22;5099906;28;20469;-46
2022/04/28 06:40:30;;;;;;;1.58;1.48;;;;;;;7.00;100.00;102347.63;5096616;28;20028;-49
2022/04/28 06:42:55;;;;;;;7.10;2.00;;;;;;;7.06;100.00;102352.38;5092324;28;20020;-45
2022/04/28 06:45:21;;;;;;;1.58;0.73;;;;;;;7.12;100.00;102354.53;5087735;28;20495;-47
2022/04/28 06:47:46;;;;;;;3.88;1.63;;;;;;;7.20;100.00;102348.63;5096511;28;20188;-47
2022/04/28 06:50:12;;;;;;;4.50;1.70;;;;;;;7.25;100.00;102359.66;5084524;28;20040;-47
2022/04/28 06:52:38;;;;;;;8.15;1.98;;;;;;;7.28;100.00;102354.16;5089688;28;20063;-47
2022/04/28 06:55:05;;;;;;;8.00;1.38;;;;;;;7.35;100.00;102357.13;5089303;28;20062;-45
2022/04/28 06:57:31;;;;;;;8.40;1.20;;;;;;;7.38;100.00;102348.94;5091857;28;20517;-51
2022/04/28 06:59:56;;;;;;;2.20;1.00;;;;;;;7.40;100.00;102347.03;5100494;28;20031;-46
2022/04/28 07:02:22;;;;;;;3.92;1.98;;;;;;;7.43;100.00;102349.41;5093553;28;20036;-48
2022/04/28 07:04:48;;;;;;;5.18;1.15;;;;;;;7.47;100.00;102352.66;5085772;28;20035;-50
2022/04/28 07:07:14;;;;;;;2.67;0.88;;;;;;;7.51;100.00;102360.22;5079247;28;20028;-48
2022/04/28 07:09:39;;;;;;;4.00;1.17;;;;;;;7.55;100.00;102355.50;5085206;28;20046;-52
2022/04/28 07:12:05;;;;;;;7.75;1.77;;;;;;;7.60;100.00;102354.16;5091953;28;20230;-48
2022/04/28 07:14:30;;;;;;;5.82;2.20;;;;;;;7.67;100.00;102332.53;5098102;28;20102;-50
2022/04/28 07:16:55;;;;;;;2.22;0.70;;;;;;;7.68;100.00;102340.34;5093913;28;20031;-46
2022/04/28 07:19:21;;;;;;;5.30;1.92;;;;;;;7.70;100.00;102327.84;5088729;28;20023;-50
2022/04/28 07:21:46;;;;;;;5.75;1.98;;;;;;;7.70;100.00;102332.31;5089569;28;20032;-47
2022/04/28 07:24:12;;;;;;;9.23;2.72;;;;;;;7.76;100.00;102337.06;5103073;28;20032;-46
2022/04/28 07:26:37;;;;;;;3.60;1.55;;;;;;;7.74;100.00;102338.97;5104662;28;20131;-53
2022/04/28 07:29:05;;;;;;;3.60;1.30;;;;;;;7.75;100.00;102335.41;5107888;28;20035;-51
2022/04/28 07:31:30;;;;;;;2.67;1.00;;;;;;;7.82;100.00;102334.75;5101559;28;20027;-49
2022/04/28 07:33:56;;;;;;;4.00;0.77;;;;;;;7.90;100.00;102334.13;5100445;28;20404;-50
2022/04/28 07:36:21;;;;;;;2.80;0.77;;;;;;;7.97;100.00;102343.19;5097227;28;20043;-46
2022/04/28 07:38:46;;;;;;;2.80;1.30;;;;;;;8.03;100.00;102341.88;5108370;28;20039;-48
2022/04/28 07:41:13;;;;;;;1.38;0.77;;;;;;;8.05;100.00;102343.41;5085551;28;20105;-48
2022/04/28 07:43:38;;;;;;;7.55;1.17;;;;;;;8.04;100.00;102347.00;5079066;28;20027;-47
2022/04/28 07:46:03;;;;;;;1.48;0.98;;;;;;;8.05;100.00;102340.75;5105473;28;20020;-46
2022/04/28 07:48:29;;;;;;;6.53;2.15;;;;;;;8.15;100.00;102332.03;5103862;28;20136;-47
2022/04/28 07:50:54;;;;;;;1.63;0.47;;;;;;;8.25;100.00;102339.06;5099601;28;20472;-47
2022/04/28 07:53:20;;;;;;;4.30;1.23;;;;;;;8.37;100.00;102346.94;5101559;28;20107;-45
2022/04/28 07:56:10;;;;;;;6.00;0.60;;;;;;;8.45;100.00;102350.63;5099048;28;20130;-48
2022/04/28 07:58:31;;;;;;;1.55;1.45;;;;;;;8.55;100.00;102352.47;5102529;28;20462;-46
2022/04/28 08:00:57;;;;;;;8.55;1.70;;;;;;;8.60;100.00;102348.47;5093759;28;20020;-50
2022/04/28 08:03:22;;;;;;;7.95;0.73;;;;;;;8.69;100.00;102349.47;5096958;28;20428;-51
2022/04/28 08:05:48;;;;;;;5.68;1.27;;;;;;;8.75;100.00;102341.00;5098605;28;20030;-48
2022/04/28 08:08:13;;;;;;;2.75;0.73;;;;;;;8.91;100.00;102349.28;5098096;28;20043;-48
2022/04/28 08:10:38;;;;;;;2.17;0.52;;;;;;;8.88;100.00;102346.91;5108141;28;20346;-48
2022/04/28 08:13:04;;;;;;;4.05;1.48;;;;;;;8.88;100.00;102359.28;5096202;28;20055;-49
2022/04/28 08:15:30;;;;;;;3.40;0.80;;;;;;;8.84;100.00;102361.38;5097328;28;20260;-48
2022/04/28 08:17:55;;;;;;;4.68;0.98;;;;;;;8.88;100.00;102357.50;5102606;28;20049;-48
2022/04/28 08:20:20;;;;;;;1.40;0.40;;;;;;;9.04;100.00;102364.91;5098994;28;20098;-51
2022/04/28 08:22:46;;;;;;;2.97;1.15;;;;;;;9.18;100.00;102374.28;5106512;28;20040;-48
2022/04/28 08:25:11;;;;;;;1.73;1.60;;;;;;;9.31;100.00;102369.56;5093284;28;20085;-49
2022/04/28 08:27:38;;;;;;;1.60;0.52;;;;;;;9.44;100.00;102368.47;5098800;28;20019;-50
2022/04/28 08:30:04;;;;;;;5.80;1.00;;;;;;;9.50;100.00;102367.91;5095117;28;20034;-49
2022/04/28 08:32:29;;;;;;;2.20;1.30;;;;;;;9.31;100.00;102368.72;5104643;28;20419;-50
2022/04/28 08:34:54;;;;;;;3.40;1.17;;;;;;;9.29;100.00;102371.53;5095556;28;20462;-50
2022/04/28 08:37:20;;;;;;;2.97;1.33;;;;;;;9.37;100.00;102374.34;5106688;28;20024;-49
2022/04/28 08:39:45;;;;;;;5.93;1.83;;;;;;;9.37;100.00;102368.16;5107650;28;20083;-47
2022/04/28 08:42:13;;;;;;;4.38;1.38;;;;;;;9.31;100.00;102382.78;5096264;28;20035;-47
2022/04/28 08:44:39;;;;;;;2.97;1.00;;;;;;;9.32;100.00;102384.50;5097796;28;20106;-47
2022/04/28 08:47:04;;;;;;;2.97;1.20;;;;;;;9.35;100.00;102381.56;5091230;28;20033;-46
2022/04/28 08:49:32;;;;;;;11.35;1.05;;;;;;;9.33;100.00;102380.03;5101860;28;20068;-49
2022/04/28 08:51:58;;;;;;;2.65;1.08;;;;;;;9.42;100.00;102384.50;5095025;28;20123;-46
2022/04/28 08:54:26;;;;;;;3.83;1.05;;;;;;;9.54;100.00;102383.41;5102496;28;20108;-52
2022/04/28 08:56:53;;;;;;;3.15;0.80;;;;;;;9.57;100.00;102390.22;5104416;28;20024;-47
2022/04/28 08:59:22;;;;;;;2.58;0.80;;;;;;;9.76;100.00;102376.19;5102848;28;20032;-47
2022/04/28 09:01:48;;;;;;;4.82;1.33;;;;;;;10.01;100.00;102377.41;5083680;28;20032;-51
2022/04/28 09:04:13;;;;;;;2.78;1.20;;;;;;;10.13;100.00;102370.16;5089665;28;20028;-53
2022/04/28 09:06:41;;;;;;;3.03;1.45;;;;;;;10.25;100.00;102379.63;5096423;28;20020;-51
2022/04/28 09:09:11;;;;;;;2.60;1.48;;;;;;;10.33;100.00;102365.69;5097671;28;20020;-49
2022/04/28 09:11:39;;;;;;;3.92;0.90;;;;;;;10.22;100.00;102364.84;5101327;28;20038;-47
2022/04/28 09:14:09;;;;;;;2.33;1.42;;;;;;;9.97;100.00;102358.31;5105095;28;20031;-49
2022/04/28 09:16:47;;;;;;;0.98;0.73;;;;;;;9.97;100.00;102360.97;5101249;28;20118;-44
2022/04/28 09:19:24;;;;;;;4.90;1.00;;;;;;;10.08;100.00;102369.75;5097938;28;20028;-48
2022/04/28 09:22:00;;;;;;;5.50;1.27;;;;;;;10.11;100.00;102369.44;5100846;28;20035;-48
2022/04/28 09:24:27;;;;;;;5.35;1.48;;;;;;;10.22;100.00;102380.75;5101005;28;20032;-46
2022/04/28 09:26:54;;;;;;;6.65;1.58;;;;;;;10.22;100.00;102369.28;5104707;28;20031;-45
2022/04/28 09:29:21;;;;;;;2.42;0.95;;;;;;;10.29;100.00;102364.28;5104974;28;20119;-48
2022/04/28 09:31:49;;;;;;;4.82;1.00;;;;;;;10.46;100.00;102366.19;5102824;28;20047;-48
2022/04/28 09:34:16;;;;;;;3.55;0.90;;;;;;;10.53;100.00;102367.28;5102882;28;20454;-50
2022/04/28 09:36:44;;;;;;;2.97;0.90;;;;;;;10.51;100.00;102365.75;5104353;28;20091;-46
2022/04/28 09:42:29;;;;;;;4.13;0.95;;;;;;;10.59;100.00;102361.41;5106167;28;20205;-48
2022/04/28 09:44:44;;;;;;;3.80;1.48;;;;;;;10.36;100.00;102357.44;5105111;28;20043;-48
2022/04/28 09:47:10;;;;;;;11.07;2.13;;;;;;;10.46;100.00;102360.91;5106905;28;20020;-47
2022/04/28 09:49:36;;;;;;;2.97;0.70;;;;;;;10.54;100.00;102361.00;5108806;28;20035;-47
2022/04/28 09:52:02;;;;;;;5.45;1.13;;;;;;;10.64;100.00;102356.50;5110211;28;20145;-53
2022/04/28 09:54:32;;;;;;;5.15;1.25;;;;;;;10.67;100.00;102350.91;5105332;28;20450;-51
2022/04/28 09:56:58;;;;;;;2.78;1.15;;;;;;;11.01;100.00;102360.94;5107383;28;20026;-50
2022/04/28 09:59:23;;;;;;;3.60;1.30;;;;;;;11.19;100.00;102358.31;5087267;28;20408;-47
2022/04/28 10:01:49;;;;;;;1.83;1.27;;;;;;;11.09;100.00;102362.84;5097936;28;20040;-49
2022/04/28 10:04:14;;;;;;;2.42;1.33;;;;;;;11.06;100.00;102363.97;5108930;28;20088;-49
2022/04/28 10:06:40;;;;;;;3.60;1.15;;;;;;;11.48;100.00;102374.06;5098625;28;20115;-49
2022/04/28 10:09:15;;;;;;;5.88;2.28;;;;;;;11.68;100.00;102366.78;5110037;28;20395;-51
2022/04/28 10:11:41;;;;;;;2.33;1.52;;;;;;;11.48;100.00;102360.78;5108960;28;20038;-51
2022/04/28 10:14:10;;;;;;;4.50;1.55;;;;;;;11.45;100.00;102366.41;5107081;28;20105;-50
2022/04/28 10:16:38;;;;;;;3.28;1.60;;;;;;;11.37;100.00;102362.84;5093181;28;20024;-52
2022/04/28 10:19:14;;;;;;;3.17;1.10;;;;;;;11.41;100.00;102370.34;5110008;28;20081;-48
2022/04/28 10:21:53;;;;;;;4.05;1.40;;;;;;;11.69;100.00;102378.25;5107061;28;20480;-49
2022/04/28 10:33:01;;;;;;;5.07;1.67;;;;;;;12.14;100.00;102364.03;5100071;28;20116;-53
2022/04/28 10:35:40;;;;;;;4.55;2.28;;;;;;;12.17;100.00;102361.06;5096670;28;20382;-47
2022/04/28 10:38:19;;;;;;;4.93;1.50;;;;;;;12.48;100.00;102357.94;5098645;28;20480;-48
2022/04/28 10:41:11;;;;;;;5.47;2.35;;;;;;;12.00;100.00;102354.78;5097699;28;20141;-49
2022/04/28 10:43:42;;;;;;;4.28;1.60;;;;;;;11.81;100.00;102373.53;5099204;28;20032;-46
2022/04/28 10:46:07;;;;;;;3.55;1.95;;;;;;;11.65;100.00;102376.88;5102826;28;20400;-47
2022/04/28 10:48:38;;;;;;;1.38;1.23;;;;;;;11.77;100.00;102373.00;5107373;28;20028;-47
2022/04/28 10:51:12;;;;;;;2.73;1.57;;;;;;;12.02;100.00;102365.25;5104186;28;20038;-48
2022/04/28 10:54:16;;;;;;;3.13;1.98;;;;;;;12.20;100.00;102358.91;5106603;28;20024;-44
2022/04/28 10:56:42;;;;;;;5.13;1.92;;;;;;;12.11;100.00;102359.88;5097810;28;20047;-45
2022/04/28 10:59:25;;;;;;;5.43;2.35;;;;;;;12.09;100.00;102355.69;5106399;28;20032;-48
2022/04/28 11:01:51;;;;;;;3.92;1.30;;;;;;;12.38;100.00;102352.72;5081718;28;20077;-44
2022/04/28 11:04:21;;;;;;;5.10;1.85;;;;;;;12.42;100.00;102352.25;5104249;28;20424;-45
2022/04/28 11:06:51;;;;;;;4.07;1.98;;;;;;;12.26;100.00;102356.63;5104374;28;20054;-47
2022/04/28 11:09:30;;;;;;;4.35;2.00;;;;;;;12.53;100.00;102359.13;5089035;28;20055;-52
2022/04/28 11:12:07;;;;;;;6.03;1.90;;;;;;;12.88;100.00;102360.78;5099266;28;20213;-48
2022/04/28 11:14:48;;;;;;;9.32;2.58;;;;;;;12.73;100.00;102358.91;5083184;28;20112;-47
2022/04/28 11:17:14;;;;;;;;;;;;;;;12.31;100.00;102355.16;5093501;28;20036;-49
2022/04/28 11:19:41;;;;;;;5.03;1.27;;;;;;;12.43;100.00;102369.03;5095785;28;19916;-48
2022/04/28 11:22:06;;;;;;;9.32;2.08;;;;;;;12.74;100.00;102366.72;5106370;28;20454;-49
2022/04/28 11:24:32;;;;;;;6.30;2.55;;;;;;;12.79;100.00;102369.72;5103566;28;20031;-47
2022/04/28 11:27:00;;;;;;;7.60;1.48;;;;;;;12.90;100.00;102368.59;5096481;28;20027;-48
2022/04/28 11:29:28;;;;;;;1.77;1.52;;;;;;;12.88;100.00;102378.56;5098866;28;20469;-52
2022/04/28 11:31:54;;;;;;;4.13;1.42;;;;;;;13.05;100.00;102385.63;5096318;28;20139;-45
2022/04/28 11:34:20;;;;;;;4.95;1.63;;;;;;;13.06;100.00;102382.00;5107280;28;20041;-46
2022/04/28 11:36:46;;;;;;;4.32;1.45;;;;;;;13.13;100.00;102381.34;5096310;28;20492;-49
2022/04/28 11:39:11;;;;;;;2.70;1.17;;;;;;;13.21;100.00;102387.50;5099776;28;20038;-48
2022/04/28 11:41:41;;;;;;;6.93;1.38;;;;;;;13.21;100.00;102382.19;5101472;28;20497;-47
2022/04/28 11:44:09;;;;;;;7.93;1.40;;;;;;;13.23;100.00;102382.03;5099071;28;20496;-47
2022/04/28 11:46:50;;;;;;;3.05;1.00;;;;;;;13.45;100.00;102383.28;5100194;28;20057;-47
2022/04/28 11:49:20;;;;;;;;;;;;;;;13.52;100.00;102377.13;5101650;28;20074;-50